Time;durP1;ratioP1;P1;durP2;ratioP2;P2;SDS_P1;SDS_P2;PMS_P1;PMS_P2;Temp;Humidity;BMP_temperature;BMP_pressure;BME280_temperature;BME280_humidity;BME280_pressure;Samples;Min_cycle;Max_cycle;Signal;HPM_P1;HPM_P2
2021/10/28 00:14:26;;;;;;;4.97;4.50;;;11.60;99.90;;;;;;5005570;28;21000;-76
2021/10/28 00:16:54;;;;;;;6.43;5.00;;;11.60;99.90;;;;;;5005587;28;20501;-76
2021/10/28 00:19:20;;;;;;;6.00;5.03;;;11.40;99.90;;;;;;5005761;28;20601;-75
2021/10/28 00:21:46;;;;;;;7.00;5.60;;;11.50;99.90;;;;;;5008325;28;20472;-76
2021/10/28 00:24:13;;;;;;;6.53;5.10;;;11.40;99.90;;;;;;5005050;28;20239;-76
2021/10/28 00:26:41;;;;;;;6.47;5.77;;;11.30;99.90;;;;;;5006325;28;20555;-75
2021/10/28 00:29:09;;;;;;;8.10;5.07;;;11.30;99.90;;;;;;5005609;28;20458;-75
2021/10/28 00:31:39;;;;;;;10.10;5.90;;;11.50;99.90;;;;;;5006224;28;20436;-77
2021/10/28 00:34:07;;;;;;;6.03;5.30;;;11.60;99.90;;;;;;5007587;28;20424;-77
2021/10/28 00:36:34;;;;;;;7.23;5.07;;;11.60;99.90;;;;;;5006333;28;20436;-77
2021/10/28 00:39:00;;;;;;;7.40;5.40;;;11.60;99.90;;;;;;5005779;28;20947;-77
2021/10/28 00:41:26;;;;;;;6.07;5.20;;;11.60;99.90;;;;;;5005131;28;20517;-77
2021/10/28 00:43:57;;;;;;;5.77;5.27;;;11.60;99.90;;;;;;5006601;28;20932;-77
2021/10/28 00:46:28;;;;;;;6.67;5.10;;;11.60;99.90;;;;;;5003707;28;20262;-76
2021/10/28 00:48:55;;;;;;;8.77;5.30;;;11.60;99.90;;;;;;5006234;28;20436;-75
2021/10/28 00:51:23;;;;;;;8.87;5.90;;;11.50;99.90;;;;;;5008620;28;20856;-76
2021/10/28 00:53:50;;;;;;;6.93;5.13;;;11.20;99.90;;;;;;5005694;28;20455;-76
2021/10/28 00:56:17;;;;;;;6.33;5.40;;;11.50;99.90;;;;;;5006708;28;20463;-75
2021/10/28 00:58:43;;;;;;;9.27;6.17;;;11.20;99.90;;;;;;5004423;28;20448;-77
2021/10/28 01:01:10;;;;;;;5.43;4.63;;;11.00;99.90;;;;;;5006281;28;20463;-77
2021/10/28 01:03:38;;;;;;;6.63;5.20;;;10.90;99.90;;;;;;5005085;28;20458;-76
2021/10/28 01:06:06;;;;;;;6.10;5.17;;;11.10;99.90;;;;;;5006926;28;20440;-76
2021/10/28 01:08:37;;;;;;;6.17;5.57;;;11.20;99.90;;;;;;5007787;28;20459;-78
2021/10/28 01:11:04;;;;;;;6.90;4.83;;;11.10;99.90;;;;;;5004413;28;21032;-77
2021/10/28 01:13:30;;;;;;;6.60;5.90;;;11.10;99.90;;;;;;5006332;28;20459;-79
2021/10/28 01:15:56;;;;;;;6.50;5.50;;;11.20;99.90;;;;;;5006144;28;20447;-77
2021/10/28 01:18:23;;;;;;;8.50;5.83;;;11.30;99.90;;;;;;5004488;28;20444;-77
2021/10/28 01:20:51;;;;;;;7.27;6.20;;;11.30;99.90;;;;;;5008440;28;20233;-77
2021/10/28 01:23:21;;;;;;;7.00;5.47;;;11.40;99.90;;;;;;5003409;28;20550;-77
2021/10/28 01:25:55;;;;;;;5.80;5.30;;;11.40;99.90;;;;;;5007094;28;20806;-76
2021/10/28 01:28:22;;;;;;;6.80;5.27;;;11.30;99.90;;;;;;5006036;28;20424;-76
2021/10/28 01:30:53;;;;;;;6.90;4.90;;;11.30;99.90;;;;;;5004973;28;20510;-76
2021/10/28 01:33:19;;;;;;;6.50;5.80;;;11.40;99.90;;;;;;5006982;28;20452;-76
2021/10/28 01:35:45;;;;;;;7.47;5.60;;;11.40;99.90;;;;;;5006486;28;20604;-76
2021/10/28 01:38:13;;;;;;;6.10;5.23;;;11.40;99.90;;;;;;5006631;28;20567;-75
2021/10/28 01:40:39;;;;;;;8.43;5.20;;;11.30;99.90;;;;;;5003383;28;20967;-76
2021/10/28 01:43:06;;;;;;;7.50;5.80;;;11.00;99.90;;;;;;5006086;28;20452;-76
2021/10/28 01:45:32;;;;;;;7.00;5.77;;;10.70;99.90;;;;;;5005517;28;20444;-76
2021/10/28 01:47:59;;;;;;;8.50;5.70;;;10.60;99.90;;;;;;5004236;28;20526;-76
2021/10/28 01:50:28;;;;;;;8.37;5.60;;;10.70;99.90;;;;;;5007634;28;20439;-75
2021/10/28 01:52:53;;;;;;;7.70;5.40;;;10.70;99.90;;;;;;5004299;28;20455;-77
2021/10/28 01:55:19;;;;;;;6.33;5.30;;;10.50;99.90;;;;;;5005657;28;20448;-75
2021/10/28 01:57:45;;;;;;;8.27;5.90;;;10.50;99.90;;;;;;4985362;28;21006;-75
2021/10/28 02:00:16;;;;;;;7.60;5.40;;;10.50;99.90;;;;;;5006856;28;20240;-75
2021/10/28 02:02:45;;;;;;;9.23;6.20;;;10.80;99.90;;;;;;5004213;28;20892;-77
2021/10/28 02:05:12;;;;;;;7.33;5.40;;;10.80;99.90;;;;;;5002433;28;20440;-75
2021/10/28 02:07:37;;;;;;;6.40;5.27;;;10.70;99.90;;;;;;5006640;28;20451;-76
2021/10/28 02:10:06;;;;;;;9.63;5.60;;;10.60;99.90;;;;;;5004946;28;21224;-76
2021/10/28 02:12:33;;;;;;;6.40;4.80;;;10.60;99.90;;;;;;4988483;28;20244;-76
2021/10/28 02:14:58;;;;;;;5.60;5.00;;;10.60;99.90;;;;;;5004796;28;20796;-75
2021/10/28 02:17:24;;;;;;;7.17;5.93;;;10.60;99.90;;;;;;5005806;28;20475;-77
2021/10/28 02:19:50;;;;;;;6.20;5.60;;;10.50;99.90;;;;;;4990403;28;20213;-76
2021/10/28 02:22:15;;;;;;;9.33;5.80;;;10.50;99.90;;;;;;5003412;28;20224;-75
2021/10/28 02:24:41;;;;;;;6.00;5.10;;;10.90;99.90;;;;;;5004603;28;20201;-77
2021/10/28 02:27:07;;;;;;;6.50;5.20;;;10.70;99.90;;;;;;4983548;28;20189;-77
2021/10/28 02:29:33;;;;;;;7.57;5.20;;;10.60;99.90;;;;;;4988745;28;20451;-78
2021/10/28 02:31:58;;;;;;;6.10;5.50;;;10.40;99.90;;;;;;5001390;28;20212;-78
2021/10/28 02:34:24;;;;;;;7.43;5.43;;;10.40;99.90;;;;;;5003350;28;20193;-78
2021/10/28 02:36:50;;;;;;;6.90;5.03;;;10.20;99.90;;;;;;5000633;28;20746;-78
2021/10/28 02:39:16;;;;;;;7.50;4.90;;;10.40;99.90;;;;;;5005256;28;20189;-77
2021/10/28 02:41:42;;;;;;;6.43;5.30;;;10.20;99.90;;;;;;5002826;28;20439;-77
2021/10/28 02:44:09;;;;;;;6.87;4.87;;;10.20;99.90;;;;;;5001726;28;20440;-76
2021/10/28 02:46:34;;;;;;;6.73;5.60;;;10.00;99.90;;;;;;5005219;28;20440;-76
2021/10/28 02:49:01;;;;;;;6.10;5.27;;;9.90;99.90;;;;;;5000972;28;20442;-76
2021/10/28 02:51:26;;;;;;;10.80;5.37;;;10.20;99.90;;;;;;5004462;28;20197;-77
2021/10/28 02:53:52;;;;;;;6.93;5.10;;;10.30;99.90;;;;;;4988867;28;20424;-76
2021/10/28 02:56:18;;;;;;;10.10;5.40;;;10.50;99.90;;;;;;5003155;28;20212;-74
2021/10/28 02:58:43;;;;;;;5.87;5.27;;;10.50;99.90;;;;;;5004630;28;20255;-76
2021/10/28 03:01:09;;;;;;;5.90;4.97;;;10.40;99.90;;;;;;5002579;28;20476;-77
2021/10/28 03:03:38;;;;;;;8.27;5.07;;;10.20;99.90;;;;;;5004707;28;20944;-77
2021/10/28 03:06:04;;;;;;;6.70;5.43;;;10.30;99.90;;;;;;5002719;28;20174;-77
2021/10/28 03:08:32;;;;;;;5.93;5.33;;;10.30;99.90;;;;;;5004335;28;20470;-76
2021/10/28 03:10:57;;;;;;;6.10;5.07;;;10.30;99.90;;;;;;4987929;28;20975;-76
2021/10/28 03:13:23;;;;;;;6.83;6.00;;;10.20;99.90;;;;;;5005728;28;20494;-76
2021/10/28 03:15:51;;;;;;;10.30;5.40;;;10.30;99.90;;;;;;5001068;28;20233;-76
2021/10/28 03:26:23;;;;;;;8.03;5.70;;;10.20;99.90;;;;;;5004054;28;20463;-75
2021/10/28 03:28:48;;;;;;;10.30;6.17;;;10.10;99.90;;;;;;5004045;28;20436;-76
2021/10/28 03:31:14;;;;;;;6.47;4.77;;;9.90;99.90;;;;;;4987360;28;20242;-78
2021/10/28 03:33:44;;;;;;;6.80;4.90;;;9.90;99.90;;;;;;5007216;28;20358;-78
2021/10/28 03:36:15;;;;;;;5.80;4.50;;;9.50;99.90;;;;;;4990767;28;20720;-77
2021/10/28 03:39:07;;;;;;;6.30;4.43;;;9.70;99.90;;;;;;4991392;28;20530;-77
2021/10/28 04:29:55;;;;;;;5.03;3.80;;;9.00;99.90;;;;;;5004649;28;20458;-77
2021/10/28 04:32:21;;;;;;;7.33;4.50;;;9.00;99.90;;;;;;5011187;28;21033;-78
2021/10/28 04:34:47;;;;;;;6.10;4.27;;;8.90;99.90;;;;;;5004126;28;20704;-77
2021/10/28 04:37:12;;;;;;;5.30;3.63;;;8.60;99.90;;;;;;5009359;28;20475;-77
2021/10/28 04:39:38;;;;;;;6.73;4.07;;;8.40;99.90;;;;;;5002182;28;20253;-77
2021/10/28 04:42:04;;;;;;;4.63;4.13;;;8.50;99.90;;;;;;5008091;28;20638;-77
2021/10/28 04:44:30;;;;;;;5.37;4.20;;;8.30;99.90;;;;;;5008388;28;20504;-78
2021/10/28 04:46:55;;;;;;;8.17;3.90;;;8.50;99.90;;;;;;5006738;28;20451;-76
2021/10/28 04:49:22;;;;;;;4.60;4.10;;;8.70;99.90;;;;;;5009252;28;20192;-78
2021/10/28 04:51:50;;;;;;;5.10;4.20;;;8.80;99.90;;;;;;5006611;28;20699;-78
2021/10/28 04:54:15;;;;;;;4.43;4.00;;;8.70;99.90;;;;;;5010171;28;20416;-77
2021/10/28 04:56:41;;;;;;;6.17;3.47;;;8.60;99.90;;;;;;5003737;28;20444;-78
2021/10/28 04:59:06;;;;;;;7.83;4.13;;;8.30;99.90;;;;;;5000161;28;20183;-77
2021/10/28 05:01:33;;;;;;;3.83;3.50;;;8.40;99.90;;;;;;5005290;28;20561;-78
2021/10/28 05:03:59;;;;;;;5.97;4.33;;;8.70;99.90;;;;;;5006490;28;20383;-78
2021/10/28 05:06:25;;;;;;;21.67;5.63;;;8.80;99.90;;;;;;5008653;28;20436;-77
2021/10/28 05:08:50;;;;;;;4.80;4.07;;;8.80;99.90;;;;;;5005966;28;20236;-76
2021/10/28 05:11:20;;;;;;;5.57;4.40;;;9.00;99.90;;;;;;5012877;28;20712;-76
2021/10/28 05:13:46;;;;;;;6.20;3.97;;;9.10;99.90;;;;;;5006298;28;20259;-77
2021/10/28 05:16:12;;;;;;;6.70;4.67;;;8.80;99.90;;;;;;5007296;28;20435;-76
2021/10/28 05:18:41;;;;;;;6.60;4.87;;;9.20;99.90;;;;;;5007822;28;20440;-77
2021/10/28 05:21:11;;;;;;;5.77;3.83;;;9.50;99.90;;;;;;4993467;28;20498;-77
2021/10/28 05:23:38;;;;;;;8.83;4.50;;;9.60;99.90;;;;;;5005613;28;20988;-77
2021/10/28 05:26:05;;;;;;;11.33;4.90;;;9.50;99.90;;;;;;5002064;28;20506;-76
2021/10/28 05:28:32;;;;;;;6.30;4.57;;;9.60;99.90;;;;;;5000191;28;20420;-75
2021/10/28 05:30:57;;;;;;;8.43;5.77;;;9.40;99.90;;;;;;5000406;28;20456;-77
2021/10/28 05:33:23;;;;;;;6.10;4.97;;;9.50;99.90;;;;;;5000228;28;20453;-75
2021/10/28 05:35:49;;;;;;;4.83;4.23;;;9.40;99.90;;;;;;5001843;28;20766;-77
2021/10/28 05:38:15;;;;;;;5.40;4.40;;;9.40;99.90;;;;;;4996770;28;20207;-77
2021/10/28 05:40:40;;;;;;;7.07;5.60;;;9.50;99.90;;;;;;4998963;28;20301;-76
2021/10/28 05:43:08;;;;;;;9.07;5.37;;;9.40;99.90;;;;;;5001274;28;20906;-77
2021/10/28 05:45:35;;;;;;;7.70;4.73;;;9.20;99.90;;;;;;4989704;28;20182;-77
2021/10/28 05:48:00;;;;;;;6.30;5.40;;;8.90;99.90;;;;;;4997995;28;20732;-76
2021/10/28 05:50:27;;;;;;;8.50;5.20;;;9.30;99.90;;;;;;4999430;28;20995;-77
2021/10/28 05:52:55;;;;;;;7.93;5.57;;;9.30;99.90;;;;;;4988170;28;20205;-77
2021/10/28 05:55:22;;;;;;;7.47;5.90;;;9.60;99.90;;;;;;4972053;28;20712;-77
2021/10/28 05:57:49;;;;;;;8.43;5.30;;;9.80;99.90;;;;;;4999918;28;20947;-77
2021/10/28 06:00:15;;;;;;;7.03;5.40;;;9.80;99.90;;;;;;4999746;28;20474;-75
2021/10/28 06:02:42;;;;;;;6.57;5.20;;;9.70;99.90;;;;;;5000586;28;20449;-77
2021/10/28 06:05:08;;;;;;;9.07;6.10;;;9.50;99.90;;;;;;5000587;28;20428;-77
2021/10/28 06:07:34;;;;;;;6.63;4.83;;;9.70;99.90;;;;;;4991152;28;20432;-76
2021/10/28 06:10:01;;;;;;;7.70;5.17;;;9.60;99.90;;;;;;5003653;28;20432;-76
2021/10/28 06:12:32;;;;;;;9.50;6.30;;;9.50;99.90;;;;;;4996656;28;20590;-76
2021/10/28 06:14:57;;;;;;;9.73;5.57;;;9.10;99.90;;;;;;5002760;28;20540;-76
2021/10/28 06:17:31;;;;;;;10.67;5.87;;;9.30;99.90;;;;;;4989908;28;20922;-76
2021/10/28 06:19:57;;;;;;;13.00;6.87;;;9.30;99.90;;;;;;4995971;28;20742;-76
2021/10/28 06:22:22;;;;;;;14.10;7.40;;;9.20;99.90;;;;;;4985815;28;20579;-76
2021/10/28 06:24:48;;;;;;;15.50;5.80;;;9.50;99.90;;;;;;5003255;28;20240;-76
2021/10/28 06:27:14;;;;;;;25.30;8.23;;;9.30;99.90;;;;;;5004113;28;20200;-77
2021/10/28 06:29:39;;;;;;;21.50;8.73;;;9.00;99.90;;;;;;5002668;28;20193;-77
2021/10/28 06:32:06;;;;;;;19.97;8.50;;;9.10;99.90;;;;;;5001880;28;20221;-76
2021/10/28 06:34:38;;;;;;;23.03;8.60;;;9.10;99.90;;;;;;4987666;28;20216;-75
2021/10/28 06:37:05;;;;;;;23.90;10.20;;;8.80;99.90;;;;;;5003732;28;20428;-75
2021/10/28 06:39:33;;;;;;;25.00;10.20;;;8.90;99.90;;;;;;4999419;28;20472;-76
2021/10/28 06:41:59;;;;;;;19.53;9.23;;;8.80;99.90;;;;;;5000963;28;20827;-75
2021/10/28 06:44:25;;;;;;;23.10;9.00;;;9.20;99.90;;;;;;5002481;28;20436;-76
2021/10/28 06:46:51;;;;;;;21.07;8.60;;;9.30;99.90;;;;;;5004647;28;20189;-77
2021/10/28 06:49:18;;;;;;;24.83;8.60;;;9.30;99.90;;;;;;5002793;28;20264;-76
2021/10/28 06:51:44;;;;;;;21.77;9.50;;;9.40;99.90;;;;;;4998058;28;20251;-76
2021/10/28 07:04:52;;;;;;;23.33;10.40;;;9.20;99.90;;;;;;5003101;28;20495;-77
2021/10/28 07:07:19;;;;;;;17.43;8.80;;;9.10;99.90;;;;;;4997642;28;20432;-75
2021/10/28 07:09:57;;;;;;;23.60;9.07;;;9.30;99.90;;;;;;4999755;28;20606;-76
2021/10/28 07:12:28;;;;;;;18.37;8.90;;;9.20;99.90;;;;;;5004181;28;21030;-77
2021/10/28 07:14:59;;;;;;;20.50;9.73;;;9.20;99.90;;;;;;5003907;28;20830;-77
2021/10/28 07:17:32;;;;;;;17.27;8.90;;;9.40;99.90;;;;;;5001351;28;20548;-77
2021/10/28 07:57:42;;;;;;;18.77;10.63;;;9.20;99.90;;;;;;5009524;28;21193;-77
2021/10/28 08:29:31;;;;;;;21.77;12.57;;;10.20;99.90;;;;;;5003631;28;20463;-75
2021/10/28 08:31:57;;;;;;;17.17;9.73;;;10.40;99.90;;;;;;5003578;28;20497;-75
2021/10/28 08:34:31;;;;;;;17.60;11.00;;;10.60;99.90;;;;;;5003518;28;20428;-74
2021/10/28 08:37:06;;;;;;;18.13;11.70;;;10.70;99.90;;;;;;4992292;28;20231;-74
2021/10/28 08:39:36;;;;;;;24.30;10.80;;;10.90;99.90;;;;;;5007589;28;20478;-75
2021/10/28 08:42:08;;;;;;;17.70;11.00;;;10.90;99.90;;;;;;5004374;28;20981;-76
2021/10/28 08:44:38;;;;;;;17.50;10.73;;;10.70;99.90;;;;;;5007285;28;20520;-75
2021/10/28 08:47:05;;;;;;;19.13;10.47;;;10.70;99.90;;;;;;5001832;28;21657;-76
2021/10/28 08:49:41;;;;;;;15.07;10.30;;;10.90;99.90;;;;;;5007963;28;21144;-76
2021/10/28 09:26:54;;;;;;;20.60;11.67;;;11.10;99.90;;;;;;5005140;28;20498;-76
2021/10/28 09:32:01;;;;;;;20.20;12.50;;;11.30;99.90;;;;;;5007460;28;20443;-75
2021/10/28 09:54:40;;;;;;;18.97;13.07;;;11.50;99.90;;;;;;5007341;28;20978;-75
2021/10/28 09:59:57;;;;;;;22.07;13.83;;;11.20;99.90;;;;;;5004270;28;20526;-76
2021/10/28 10:02:38;;;;;;;19.03;13.03;;;11.50;99.90;;;;;;5006600;28;20968;-76
2021/10/28 10:05:18;;;;;;;19.53;12.33;;;11.80;99.90;;;;;;5002841;28;20443;-75
2021/10/28 10:07:45;;;;;;;21.50;14.50;;;11.40;99.90;;;;;;5005372;28;20839;-74
2021/10/28 10:10:18;;;;;;;21.60;15.00;;;11.50;99.90;;;;;;5004999;28;21342;-76
2021/10/28 10:12:44;;;;;;;22.93;15.30;;;11.50;99.90;;;;;;5007014;28;20463;-76
2021/10/28 10:15:11;;;;;;;23.67;13.60;;;11.20;99.90;;;;;;4996169;28;20420;-74
2021/10/28 10:17:38;;;;;;;23.17;13.37;;;11.20;99.90;;;;;;5001784;28;20554;-74
2021/10/28 10:20:13;;;;;;;22.70;15.17;;;11.30;99.90;;;;;;4993287;28;20486;-76
2021/10/28 10:26:05;;;;;;;22.37;14.70;;;11.00;99.90;;;;;;4981759;28;20433;-75
2021/10/28 12:46:14;;;;;;;16.20;14.60;;;30.50;62.00;;;;;;5005469;28;20431;-74
2021/10/28 12:49:36;;;;;;;16.07;14.50;;;30.20;61.50;;;;;;5008160;28;20436;-76
2021/10/28 15:28:40;;;;;;;21.80;16.30;;;16.70;99.90;;;;;;5002587;28;20427;-75
2021/10/28 15:36:17;;;;;;;50.47;16.47;;;16.50;99.90;;;;;;5001236;28;20476;-75
2021/10/28 15:57:30;;;;;;;21.90;15.70;;;16.00;99.90;;;;;;4999483;28;20982;-74
2021/10/28 16:24:36;;;;;;;20.97;16.60;;;15.20;99.90;;;;;;4943347;28;20540;-75
2021/10/28 16:27:03;;;;;;;21.80;17.83;;;15.20;99.90;;;;;;4942208;28;20513;-74
2021/10/28 16:29:29;;;;;;;24.00;17.20;;;15.20;99.90;;;;;;4974029;28;20193;-75
2021/10/28 16:31:56;;;;;;;22.13;17.63;;;15.10;99.90;;;;;;5000356;28;20444;-76
2021/10/28 16:34:23;;;;;;;22.60;17.70;;;15.00;99.90;;;;;;5006483;28;20486;-75
2021/10/28 16:36:49;;;;;;;24.10;19.40;;;14.90;99.90;;;;;;5001065;28;20448;-75
2021/10/28 16:39:16;;;;;;;24.80;17.90;;;14.90;99.90;;;;;;5004518;28;20448;-76
2021/10/28 16:41:47;;;;;;;26.40;19.77;;;15.00;99.90;;;;;;5001907;28;20917;-76
2021/10/28 16:44:14;;;;;;;24.13;18.17;;;14.90;99.90;;;;;;5005367;28;20813;-75
2021/10/28 16:46:40;;;;;;;23.43;17.73;;;14.90;99.90;;;;;;5004910;28;20463;-76
2021/10/28 16:49:07;;;;;;;27.90;18.67;;;14.80;99.90;;;;;;5002267;28;20535;-76
2021/10/28 16:51:34;;;;;;;25.87;18.03;;;14.70;99.90;;;;;;5006706;28;20440;-75
2021/10/28 16:54:01;;;;;;;28.90;20.80;;;14.60;99.90;;;;;;5002084;28;20452;-76
2021/10/28 16:56:26;;;;;;;23.73;18.00;;;14.50;99.90;;;;;;4993253;28;20490;-76
2021/10/28 16:58:52;;;;;;;27.87;18.53;;;14.30;99.90;;;;;;5003814;28;20452;-76
2021/10/28 17:01:18;;;;;;;31.60;19.80;;;14.30;99.90;;;;;;5003444;28;20226;-76
2021/10/28 17:03:44;;;;;;;28.37;20.13;;;14.30;99.90;;;;;;5003833;28;20241;-75
2021/10/28 17:06:13;;;;;;;25.10;19.87;;;14.40;99.90;;;;;;5006095;28;20197;-75
2021/10/28 17:08:40;;;;;;;24.37;18.47;;;14.50;99.90;;;;;;5005807;28;20432;-75
2021/10/28 17:11:06;;;;;;;23.87;18.90;;;14.50;99.90;;;;;;5002426;28;20515;-75
2021/10/28 17:13:32;;;;;;;29.47;21.23;;;14.20;99.90;;;;;;5006603;28;21140;-76
2021/10/28 17:15:58;;;;;;;26.57;18.63;;;14.10;99.90;;;;;;5002436;28;20474;-75
2021/10/28 17:18:24;;;;;;;24.13;19.63;;;14.00;99.90;;;;;;5004640;28;20424;-75
2021/10/28 17:20:49;;;;;;;26.07;17.90;;;14.00;99.90;;;;;;5002682;28;20224;-75
2021/10/28 17:23:17;;;;;;;28.93;18.70;;;13.80;99.90;;;;;;5005691;28;20216;-76
2021/10/28 17:25:56;;;;;;;26.37;19.17;;;13.80;99.90;;;;;;5005030;28;20283;-76
2021/10/28 17:28:23;;;;;;;26.37;19.53;;;14.00;99.90;;;;;;4992132;28;20498;-75
2021/10/28 17:30:49;;;;;;;23.80;19.17;;;13.80;99.90;;;;;;4989931;28;20541;-76
2021/10/28 17:33:14;;;;;;;29.00;19.87;;;13.90;99.90;;;;;;5002235;28;20469;-76
2021/10/28 17:35:40;;;;;;;29.50;19.10;;;13.80;99.90;;;;;;5005499;28;20260;-75
2021/10/28 17:38:06;;;;;;;29.37;20.77;;;13.90;99.90;;;;;;5001449;28;20200;-75
2021/10/28 17:40:32;;;;;;;30.60;21.07;;;14.00;99.90;;;;;;5005126;28;20209;-76
2021/10/28 17:42:58;;;;;;;29.37;20.30;;;13.90;99.90;;;;;;5003263;28;20229;-75
2021/10/28 17:45:26;;;;;;;27.30;19.40;;;13.80;99.90;;;;;;5003624;28;20212;-76
2021/10/28 17:47:54;;;;;;;27.27;19.17;;;13.90;99.90;;;;;;5001160;28;20432;-75
2021/10/28 17:50:21;;;;;;;27.67;18.63;;;14.00;99.90;;;;;;5008390;28;20463;-76
2021/10/28 17:52:47;;;;;;;28.03;18.60;;;13.90;99.90;;;;;;5002834;28;20464;-75
2021/10/28 17:55:12;;;;;;;26.27;17.40;;;13.80;99.90;;;;;;5001691;28;20493;-75
2021/10/28 17:57:41;;;;;;;23.47;17.80;;;13.80;99.90;;;;;;5003429;28;20676;-75
2021/10/28 18:00:08;;;;;;;26.47;18.30;;;13.90;99.90;;;;;;5000848;28;20563;-75
2021/10/28 18:02:37;;;;;;;25.60;18.20;;;13.90;99.90;;;;;;5007495;28;20511;-75
2021/10/28 18:05:04;;;;;;;27.20;19.57;;;13.70;99.90;;;;;;4999455;28;20470;-75
2021/10/28 18:07:29;;;;;;;27.43;19.90;;;13.60;99.90;;;;;;5007720;28;20436;-74
2021/10/28 18:09:58;;;;;;;29.80;19.63;;;13.80;99.90;;;;;;5002883;28;21242;-76
2021/10/28 18:12:24;;;;;;;30.97;19.67;;;13.80;99.90;;;;;;4986614;28;20586;-75
2021/10/28 18:14:49;;;;;;;27.27;21.07;;;13.80;99.90;;;;;;4999104;28;20482;-75
2021/10/28 18:17:18;;;;;;;31.47;21.47;;;13.70;99.90;;;;;;5001895;28;20432;-76
2021/10/28 18:19:43;;;;;;;31.93;22.50;;;13.60;99.90;;;;;;5003119;28;20208;-76
2021/10/28 18:22:09;;;;;;;30.13;22.43;;;13.60;99.90;;;;;;4987717;28;20479;-76
2021/10/28 18:24:35;;;;;;;31.50;22.90;;;13.60;99.90;;;;;;5001022;28;20193;-76
2021/10/28 18:27:02;;;;;;;33.17;21.93;;;13.70;99.90;;;;;;5002985;28;20855;-76
2021/10/28 18:29:28;;;;;;;27.80;20.93;;;13.60;99.90;;;;;;5002089;28;20189;-76
2021/10/28 18:31:53;;;;;;;25.80;20.30;;;13.60;99.90;;;;;;5003318;28;20919;-76
2021/10/28 18:34:19;;;;;;;31.10;21.73;;;13.50;99.90;;;;;;4999719;28;20912;-75
2021/10/28 18:36:45;;;;;;;26.53;21.03;;;13.50;99.90;;;;;;5002721;28;20208;-76
2021/10/28 18:39:13;;;;;;;41.03;23.13;;;13.50;99.90;;;;;;5000769;28;20439;-75
2021/10/28 18:41:43;;;;;;;33.37;23.23;;;13.30;99.90;;;;;;5005175;28;20217;-74
2021/10/28 18:44:09;;;;;;;31.73;20.87;;;13.20;99.90;;;;;;5000542;28;20951;-76
2021/10/28 18:46:35;;;;;;;34.87;22.87;;;13.20;99.90;;;;;;5003370;28;20440;-76
2021/10/28 18:49:03;;;;;;;34.03;23.20;;;13.30;99.90;;;;;;5001118;28;20958;-75
2021/10/28 18:51:33;;;;;;;42.57;24.50;;;13.30;99.90;;;;;;5002241;28;20228;-76
2021/10/28 18:54:01;;;;;;;33.10;24.97;;;13.20;99.90;;;;;;5003473;28;20476;-75
2021/10/28 18:56:27;;;;;;;33.90;23.77;;;13.10;99.90;;;;;;5002101;28;21046;-75
2021/10/28 18:58:53;;;;;;;33.53;23.40;;;13.20;99.90;;;;;;4989846;28;20536;-75
2021/10/28 19:01:19;;;;;;;38.57;26.80;;;13.10;99.90;;;;;;5000687;28;20494;-76
2021/10/28 19:03:46;;;;;;;36.80;24.00;;;13.20;99.90;;;;;;5002189;28;20448;-76
2021/10/28 19:06:16;;;;;;;35.40;25.40;;;13.10;99.90;;;;;;4999216;28;20220;-74
2021/10/28 19:08:43;;;;;;;42.53;28.20;;;13.00;99.90;;;;;;5002374;28;20555;-75
2021/10/28 19:11:10;;;;;;;32.60;27.00;;;13.00;99.90;;;;;;5000199;28;20486;-76
2021/10/28 19:13:39;;;;;;;36.20;25.30;;;12.80;99.90;;;;;;5001985;28;20461;-75
2021/10/28 19:16:06;;;;;;;31.03;23.60;;;12.90;99.90;;;;;;5003141;28;20821;-75
2021/10/28 19:18:31;;;;;;;34.37;25.07;;;13.00;99.90;;;;;;5005834;28;20460;-75
2021/10/28 19:20:58;;;;;;;32.77;24.20;;;13.00;99.90;;;;;;5003412;28;20895;-76
2021/10/28 19:23:23;;;;;;;39.63;27.10;;;12.90;99.90;;;;;;4984267;28;20347;-75
2021/10/28 19:25:49;;;;;;;33.43;24.23;;;12.90;99.90;;;;;;5005707;28;20542;-74
2021/10/28 19:28:16;;;;;;;39.23;26.03;;;12.80;99.90;;;;;;4999110;28;20833;-75
2021/10/28 19:33:13;;;;;;;34.97;24.20;;;12.80;99.90;;;;;;5000497;28;20467;-76
2021/10/28 19:35:42;;;;;;;37.87;26.23;;;12.80;99.90;;;;;;4999601;28;20475;-76
2021/10/28 19:48:31;;;;;;;40.43;25.43;;;12.50;99.90;;;;;;5004773;28;20776;-76
2021/10/28 19:50:57;;;;;;;40.00;25.93;;;12.40;99.90;;;;;;5001351;28;20472;-75
2021/10/28 19:53:24;;;;;;;34.97;24.33;;;12.40;99.90;;;;;;5005683;28;20456;-75
2021/10/28 19:55:50;;;;;;;37.97;26.10;;;12.30;99.90;;;;;;5008332;28;20432;-75
2021/10/28 19:58:21;;;;;;;34.00;26.30;;;12.30;99.90;;;;;;5008587;28;20440;-76
2021/10/28 20:00:59;;;;;;;41.20;25.20;;;12.20;99.90;;;;;;5007012;28;20479;-76
2021/10/28 20:06:14;;;;;;;36.83;23.97;;;11.90;99.90;;;;;;5005850;28;20443;-76
2021/10/28 20:22:23;;;;;;;35.03;24.43;;;11.60;99.90;;;;;;5006166;28;21061;-76
2021/10/28 20:24:49;;;;;;;40.60;24.60;;;11.70;99.90;;;;;;5004426;28;20551;-75
2021/10/28 20:27:14;;;;;;;33.77;23.97;;;11.60;99.90;;;;;;4991035;28;20687;-76
2021/10/28 20:29:40;;;;;;;35.50;24.00;;;11.80;99.90;;;;;;5007504;28;20196;-75
2021/10/28 20:32:06;;;;;;;34.93;25.40;;;11.90;99.90;;;;;;5007553;28;20263;-75
2021/10/28 20:34:38;;;;;;;30.70;22.00;;;11.80;99.90;;;;;;4988913;28;20197;-75
2021/10/28 20:37:11;;;;;;;32.50;22.33;;;11.80;99.90;;;;;;5004095;28;20205;-76
2021/10/28 20:39:40;;;;;;;33.70;22.90;;;11.70;99.90;;;;;;5008918;28;20494;-76
2021/10/28 20:42:07;;;;;;;33.57;23.60;;;11.70;99.90;;;;;;5002291;28;20593;-76
2021/10/28 20:44:34;;;;;;;35.70;23.03;;;11.70;99.90;;;;;;4992950;28;20475;-76
2021/10/28 20:47:00;;;;;;;32.50;21.27;;;11.60;99.90;;;;;;5001315;28;20483;-75
2021/10/28 20:49:26;;;;;;;32.33;21.60;;;11.70;99.90;;;;;;5002130;28;20444;-76
2021/10/28 20:51:52;;;;;;;30.13;21.63;;;11.60;99.90;;;;;;5007653;28;20447;-76
2021/10/28 20:54:22;;;;;;;30.37;21.33;;;11.50;99.90;;;;;;5005069;28;20182;-76
2021/10/28 20:56:49;;;;;;;28.57;21.50;;;11.50;99.90;;;;;;5001037;28;21165;-76
2021/10/28 20:59:15;;;;;;;32.17;22.10;;;11.40;99.90;;;;;;5002242;28;20493;-76
2021/10/28 21:01:41;;;;;;;30.47;22.37;;;11.30;99.90;;;;;;5004838;28;20990;-76
2021/10/28 21:04:07;;;;;;;33.43;22.80;;;11.40;99.90;;;;;;5003851;28;20439;-76
2021/10/28 21:06:35;;;;;;;29.43;20.97;;;11.20;99.90;;;;;;5003293;28;20197;-75
2021/10/28 21:09:01;;;;;;;31.63;22.87;;;11.30;99.90;;;;;;5003676;28;20196;-75
2021/10/28 21:11:26;;;;;;;28.27;22.10;;;11.30;99.90;;;;;;5001985;28;20444;-75
2021/10/28 21:13:53;;;;;;;38.23;23.33;;;11.30;99.90;;;;;;5003164;28;20205;-75
2021/10/28 21:16:19;;;;;;;29.50;22.57;;;11.30;99.90;;;;;;5002021;28;20209;-77
2021/10/28 21:18:45;;;;;;;30.30;22.40;;;11.10;99.90;;;;;;5005476;28;20910;-75
2021/10/28 21:21:11;;;;;;;28.67;22.03;;;11.20;99.90;;;;;;5002987;28;20509;-75
2021/10/28 21:23:36;;;;;;;33.50;24.10;;;11.20;99.90;;;;;;5003333;28;20228;-75
2021/10/28 21:26:02;;;;;;;32.00;21.67;;;11.20;99.90;;;;;;5007692;28;20617;-76
2021/10/28 21:28:28;;;;;;;29.13;22.20;;;11.10;99.90;;;;;;5002680;28;20281;-74
2021/10/28 21:30:54;;;;;;;29.77;21.83;;;11.10;99.90;;;;;;5005844;28;20997;-75
2021/10/28 21:33:20;;;;;;;29.63;21.00;;;11.10;99.90;;;;;;4989462;28;20846;-77
2021/10/28 21:35:46;;;;;;;29.30;22.00;;;11.00;99.90;;;;;;5011727;28;20189;-77
2021/10/28 21:38:12;;;;;;;28.03;20.83;;;10.90;99.90;;;;;;5003523;28;20531;-75
2021/10/28 21:40:38;;;;;;;30.13;21.00;;;10.90;99.90;;;;;;5006408;28;20696;-75
2021/10/28 21:43:04;;;;;;;30.43;20.20;;;10.80;99.90;;;;;;5006688;28;20460;-75
2021/10/28 21:45:31;;;;;;;31.57;22.50;;;10.70;99.90;;;;;;5001571;28;20185;-75
2021/10/28 21:47:57;;;;;;;29.17;22.20;;;10.60;99.90;;;;;;5007233;28;20502;-75
2021/10/28 21:50:23;;;;;;;26.17;19.83;;;10.70;99.90;;;;;;5004531;28;20838;-76
2021/10/28 21:53:06;;;;;;;26.47;20.70;;;10.70;99.90;;;;;;5005530;28;20464;-76
2021/10/28 22:25:05;;;;;;;43.00;24.00;;;10.30;99.90;;;;;;5004219;28;20474;-76
2021/10/28 22:27:32;;;;;;;33.57;23.10;;;10.10;99.90;;;;;;5004742;28;20428;-76
2021/10/28 22:29:59;;;;;;;31.30;22.37;;;10.20;99.90;;;;;;5006902;28;20452;-76
2021/10/28 22:32:27;;;;;;;32.07;24.00;;;10.10;99.90;;;;;;5002378;28;20483;-77
2021/10/28 22:34:53;;;;;;;32.47;23.37;;;10.30;99.90;;;;;;5003160;28;20527;-76
2021/10/28 22:37:22;;;;;;;28.40;21.67;;;10.20;99.90;;;;;;5002862;28;20523;-76
2021/10/28 22:42:29;;;;;;;29.80;23.10;;;10.10;99.90;;;;;;5005158;28;20470;-76
2021/10/28 22:44:55;;;;;;;34.10;23.43;;;10.30;99.90;;;;;;5002488;28;20448;-76
2021/10/28 22:47:21;;;;;;;34.60;23.20;;;10.20;99.90;;;;;;5001866;28;20440;-74
2021/10/28 22:49:47;;;;;;;37.20;23.50;;;10.40;99.90;;;;;;4987130;28;20443;-76
2021/10/28 22:52:22;;;;;;;31.10;23.33;;;10.50;99.90;;;;;;5005982;28;20225;-76
2021/10/28 22:54:48;;;;;;;42.10;21.93;;;10.50;99.90;;;;;;5002330;28;20450;-75